Time;durP1;ratioP1;P1;durP2;ratioP2;P2;SDS_P1;SDS_P2;PMS_P1;PMS_P2;Temp;Humidity;BMP_temperature;BMP_pressure;BME280_temperature;BME280_humidity;BME280_pressure;Samples;Min_cycle;Max_cycle;Signal;HPM_P1;HPM_P2
2023/08/31 00:01:09;;;;;;;17.50;12.37;;;14.30;99.90;;;13.84;91.76;99961.72;5096059;28;20191;-75
2023/08/31 00:03:41;;;;;;;14.70;13.20;;;14.20;99.90;;;13.73;91.73;99961.25;5095594;28;20600;-75
2023/08/31 00:06:13;;;;;;;13.40;12.00;;;14.10;99.90;;;13.64;92.32;99967.84;5096056;28;20576;-76
2023/08/31 00:08:45;;;;;;;13.63;12.33;;;14.10;99.90;;;13.69;92.52;99965.41;5095608;28;20288;-76
2023/08/31 00:11:17;;;;;;;13.83;12.10;;;14.10;99.90;;;13.67;92.10;99972.81;5095516;28;20209;-76
2023/08/31 00:13:50;;;;;;;14.60;12.87;;;14.10;99.90;;;13.69;92.02;99965.41;5095673;28;20311;-77
2023/08/31 00:16:27;;;;;;;13.73;12.10;;;14.10;99.90;;;13.70;91.65;99961.66;5095766;28;20228;-77
2023/08/31 00:19:00;;;;;;;13.80;11.97;;;14.10;99.90;;;13.79;90.80;99958.81;5095662;28;20268;-76
2023/08/31 00:21:32;;;;;;;12.87;11.53;;;14.20;99.90;;;13.89;89.73;99961.97;5096738;28;20219;-76
2023/08/31 00:24:04;;;;;;;15.20;12.40;;;14.30;99.90;;;13.81;89.62;99957.56;5095249;28;20778;-76
2023/08/31 00:26:40;;;;;;;12.93;11.50;;;14.20;99.90;;;13.82;90.42;99961.94;5095539;28;20232;-76
2023/08/31 00:29:16;;;;;;;12.63;11.33;;;14.20;99.90;;;13.70;89.44;99956.28;5095559;28;20275;-76
2023/08/31 00:31:51;;;;;;;13.03;11.63;;;14.10;99.90;;;13.69;90.02;99965.41;5095385;28;20209;-76
2023/08/31 00:34:23;;;;;;;12.47;11.23;;;14.20;99.90;;;13.62;89.44;99980.66;5094636;28;20316;-76
2023/08/31 00:36:55;;;;;;;13.03;11.83;;;14.20;99.90;;;13.52;90.14;99972.13;5095404;28;20611;-75
2023/08/31 00:39:27;;;;;;;13.40;11.73;;;14.00;99.90;;;13.41;90.22;99967.28;5095291;28;20189;-76
2023/08/31 00:41:59;;;;;;;12.73;11.37;;;13.90;99.90;;;13.45;89.74;99976.63;5095538;28;20189;-76
2023/08/31 00:44:32;;;;;;;12.80;11.03;;;13.90;99.90;;;13.53;90.45;99976.47;5095123;28;20224;-76
2023/08/31 00:47:05;;;;;;;15.67;11.53;;;13.90;99.90;;;13.49;89.38;99977.06;5095169;28;20197;-76
2023/08/31 00:49:36;;;;;;;14.47;10.43;;;13.90;99.90;;;13.37;90.12;99982.16;5095114;28;20251;-76
2023/08/31 00:52:10;;;;;;;12.10;10.90;;;14.00;99.90;;;13.46;90.22;99980.97;5095157;28;20219;-76
2023/08/31 00:54:43;;;;;;;11.90;10.50;;;13.90;99.90;;;13.45;89.10;99983.88;5094668;28;20263;-76
2023/08/31 00:57:15;;;;;;;11.37;10.13;;;13.90;99.90;;;13.45;89.48;99979.31;5094948;28;20268;-76
2023/08/31 00:59:48;;;;;;;11.43;9.80;;;13.90;99.90;;;13.47;89.16;99977.25;5095250;28;20271;-77
2023/08/31 01:02:31;;;;;;;11.07;9.97;;;13.90;99.90;;;13.49;89.18;99974.38;5094908;28;20185;-76
2023/08/31 01:05:30;;;;;;;11.10;9.43;;;13.90;99.90;;;13.53;88.08;99983.69;5094756;28;20302;-76
2023/08/31 01:08:09;;;;;;;13.33;9.87;;;13.90;99.90;;;13.55;88.28;99982.50;5094814;28;20185;-76
2023/08/31 01:10:56;;;;;;;11.53;9.17;;;14.00;99.90;;;13.58;88.29;99979.41;5094464;28;20718;-76
2023/08/31 01:13:32;;;;;;;11.90;9.47;;;14.00;99.90;;;13.49;88.27;99975.19;5094630;28;20316;-76
2023/08/31 01:16:09;;;;;;;10.77;9.67;;;13.90;99.90;;;13.52;87.98;99973.97;5094383;28;20559;-76
2023/08/31 01:18:46;;;;;;;10.40;8.93;;;14.10;99.90;;;13.48;87.83;99970.84;5094808;28;20199;-77
2023/08/31 01:21:31;;;;;;;11.53;9.23;;;14.00;99.90;;;13.58;87.64;99976.72;5094553;28;20229;-77
2023/08/31 01:24:05;;;;;;;12.43;9.00;;;14.00;99.90;;;13.56;87.17;99986.81;5094080;28;20710;-76
2023/08/31 01:26:37;;;;;;;12.43;8.87;;;14.00;99.90;;;13.57;87.10;99990.34;5094434;28;20202;-76
2023/08/31 01:29:09;;;;;;;10.33;8.40;;;14.00;99.90;;;13.53;87.09;99992.59;5094420;28;20284;-76
2023/08/31 01:31:47;;;;;;;9.13;8.23;;;13.90;99.90;;;13.56;86.94;99984.13;5094251;28;20247;-76
2023/08/31 01:34:18;;;;;;;11.30;8.40;;;14.10;99.90;;;13.40;87.51;99984.44;5093897;28;20224;-76
2023/08/31 01:36:58;;;;;;;11.33;8.53;;;13.80;99.90;;;13.34;87.23;99982.56;5094276;28;20615;-76
2023/08/31 01:39:41;;;;;;;12.23;8.40;;;13.70;99.90;;;13.35;87.91;99988.75;5093898;28;20280;-76
2023/08/31 01:42:19;;;;;;;11.40;9.03;;;13.70;99.90;;;13.20;88.52;99992.38;5094272;28;20220;-76
2023/08/31 01:44:54;;;;;;;10.60;9.43;;;13.70;99.90;;;13.17;88.13;99994.63;5093344;28;20721;-77
2023/08/31 01:47:26;;;;;;;11.80;9.37;;;13.80;99.90;;;13.11;88.63;100001.63;5093782;28;20271;-77
2023/08/31 01:49:57;;;;;;;11.97;9.40;;;13.50;99.90;;;13.12;88.39;99999.75;5093799;28;20665;-76
2023/08/31 01:52:30;;;;;;;11.63;9.67;;;13.60;99.90;;;13.08;89.35;100003.84;5093928;28;20212;-76
2023/08/31 01:55:04;;;;;;;12.40;9.37;;;13.60;99.90;;;13.07;89.78;100007.53;5093500;28;20796;-77
2023/08/31 01:57:36;;;;;;;11.17;9.30;;;13.50;99.90;;;13.06;88.91;100005.88;5093957;28;20280;-76
2023/08/31 02:00:10;;;;;;;13.57;9.80;;;13.50;99.90;;;13.01;89.38;100006.44;5093878;28;20295;-76
2023/08/31 02:02:42;;;;;;;12.70;9.00;;;13.40;99.90;;;13.11;89.17;100014.22;5093552;28;20195;-75
2023/08/31 02:05:15;;;;;;;14.50;9.63;;;13.60;99.90;;;13.09;89.08;100016.25;5093777;28;20228;-76
2023/08/31 02:07:46;;;;;;;11.73;9.63;;;13.50;99.90;;;12.94;89.52;100018.16;5093523;28;20652;-76
2023/08/31 02:10:20;;;;;;;12.53;9.40;;;13.50;99.90;;;12.97;89.85;100023.16;5093395;28;20189;-76
2023/08/31 02:12:52;;;;;;;11.00;9.00;;;13.40;99.90;;;12.99;89.30;100018.41;5093351;28;20747;-76
2023/08/31 02:15:23;;;;;;;12.93;9.73;;;13.40;99.90;;;12.95;89.93;100031.41;5093638;28;20640;-76
2023/08/31 02:17:55;;;;;;;13.17;10.03;;;13.40;99.90;;;12.93;89.44;100027.25;5093640;28;20282;-76
2023/08/31 02:20:27;;;;;;;13.07;9.90;;;13.50;99.90;;;12.78;90.65;100029.16;5093766;28;20197;-76
2023/08/31 02:23:00;;;;;;;10.37;9.27;;;13.40;99.90;;;12.76;90.85;100033.91;5093586;28;20190;-76
2023/08/31 02:25:33;;;;;;;11.47;10.27;;;13.20;99.90;;;12.75;91.38;100035.75;5093358;28;20640;-76
2023/08/31 02:28:05;;;;;;;13.77;10.07;;;13.20;99.90;;;12.76;90.80;100032.06;5093616;28;20271;-76
2023/08/31 02:30:37;;;;;;;15.87;10.40;;;13.20;99.90;;;12.75;91.53;100033.06;5093655;28;20228;-75
2023/08/31 02:33:10;;;;;;;11.83;10.20;;;13.30;99.90;;;12.75;90.72;100029.53;5096550;28;20296;-74
2023/08/31 02:35:42;;;;;;;13.40;10.67;;;13.20;99.90;;;12.74;91.60;100039.44;5099761;28;20193;-75
2023/08/31 02:38:14;;;;;;;12.20;10.43;;;13.20;99.90;;;12.71;91.25;100031.78;5099790;28;20272;-75
2023/08/31 02:40:50;;;;;;;13.33;11.13;;;13.10;99.90;;;12.70;91.27;100030.13;5100015;28;20250;-75
2023/08/31 02:43:23;;;;;;;13.10;11.27;;;13.30;99.90;;;12.70;91.29;100032.81;5099555;28;20221;-75
2023/08/31 02:46:02;;;;;;;16.87;12.07;;;13.20;99.90;;;12.56;91.18;100022.97;5097264;28;20722;-76
2023/08/31 02:48:35;;;;;;;13.33;11.93;;;13.10;99.90;;;12.60;91.72;100026.94;5093662;28;20205;-76
2023/08/31 02:51:07;;;;;;;16.47;12.10;;;13.10;99.90;;;12.56;92.42;100031.84;5093460;28;20225;-76
2023/08/31 02:53:39;;;;;;;16.30;11.73;;;13.00;99.90;;;12.52;91.34;100027.88;5092951;28;20236;-76
2023/08/31 02:56:12;;;;;;;16.57;12.80;;;13.10;99.90;;;12.43;92.09;100031.69;5093333;28;20276;-76
2023/08/31 02:58:44;;;;;;;14.33;12.60;;;12.90;99.90;;;12.44;93.13;100032.53;5096955;28;20191;-76
2023/08/31 03:01:16;;;;;;;17.03;12.17;;;12.90;99.90;;;12.32;92.83;100039.41;5097229;28;20189;-76
2023/08/31 03:03:49;;;;;;;15.40;12.40;;;12.80;99.90;;;12.33;93.47;100041.88;5096821;28;20763;-76
2023/08/31 03:06:20;;;;;;;15.83;13.40;;;12.90;99.90;;;12.31;92.94;100037.75;5097158;28;20188;-76
2023/08/31 03:08:52;;;;;;;16.70;13.63;;;12.80;99.90;;;12.35;92.56;100042.56;5096796;28;20640;-76
2023/08/31 03:11:25;;;;;;;16.93;13.13;;;12.80;99.90;;;12.42;92.58;100037.25;5097088;28;20284;-76
2023/08/31 03:13:57;;;;;;;14.87;12.97;;;12.90;99.90;;;12.45;91.88;100035.03;5096853;28;20320;-76
2023/08/31 03:16:29;;;;;;;15.73;13.13;;;13.10;99.90;;;12.44;91.58;100033.34;5097001;28;20188;-76
2023/08/31 03:19:01;;;;;;;16.37;13.80;;;13.00;99.90;;;12.44;91.66;100040.56;5096939;28;20238;-76
2023/08/31 03:21:33;;;;;;;18.43;13.57;;;12.90;99.90;;;12.43;91.75;100036.25;5096490;28;20229;-76
2023/08/31 03:24:05;;;;;;;14.93;13.30;;;12.90;99.90;;;12.39;91.25;100034.97;5096810;28;20305;-76
2023/08/31 03:26:38;;;;;;;15.63;13.87;;;12.90;99.90;;;12.31;91.80;100035.06;5096777;28;20233;-76
2023/08/31 03:29:10;;;;;;;21.00;13.87;;;12.80;99.90;;;12.37;92.88;100042.34;5096705;28;20254;-75
2023/08/31 03:31:42;;;;;;;16.70;13.87;;;12.80;99.90;;;12.40;91.88;100034.75;5096695;28;20186;-76
2023/08/31 03:34:14;;;;;;;16.63;13.40;;;12.90;99.90;;;12.31;92.34;100037.75;5096417;28;20323;-76
2023/08/31 03:36:46;;;;;;;17.37;13.93;;;12.80;99.90;;;12.39;92.70;100029.59;5096637;28;20232;-76
2023/08/31 03:39:18;;;;;;;14.97;13.07;;;12.90;99.90;;;12.48;91.62;100028.44;5096534;28;20212;-76
2023/08/31 03:41:51;;;;;;;16.83;13.87;;;13.00;99.90;;;12.46;91.93;100028.66;5096540;28;20228;-76
2023/08/31 03:44:23;;;;;;;15.83;13.30;;;13.00;99.90;;;12.44;91.55;100030.66;5096459;28;20263;-76
2023/08/31 03:46:55;;;;;;;19.20;14.10;;;12.90;99.90;;;12.43;92.04;100031.69;5096368;28;20271;-75
2023/08/31 03:49:27;;;;;;;17.33;13.30;;;12.90;99.90;;;12.40;91.43;100031.22;5096360;28;20231;-76
2023/08/31 03:51:59;;;;;;;18.90;13.53;;;12.90;99.90;;;12.41;91.30;100033.72;5095993;28;20189;-74
2023/08/31 03:54:31;;;;;;;16.60;12.93;;;12.90;99.90;;;12.37;91.89;100037.81;5095834;28;20263;-74
2023/08/31 03:57:04;;;;;;;14.80;13.20;;;12.80;99.90;;;12.35;92.16;100039.03;5096217;28;20216;-75
2023/08/31 03:59:36;;;;;;;15.87;13.57;;;12.80;99.90;;;12.31;91.80;100043.09;5096147;28;20238;-75
2023/08/31 04:02:09;;;;;;;17.03;12.57;;;12.80;99.90;;;12.29;92.06;100051.38;5096008;28;20254;-75
2023/08/31 04:04:41;;;;;;;20.93;14.47;;;12.80;99.90;;;12.24;92.49;100058.28;5095964;28;20652;-76
2023/08/31 04:07:13;;;;;;;15.13;13.53;;;12.70;99.90;;;12.24;92.70;100059.13;5096758;28;20189;-76
2023/08/31 04:09:45;;;;;;;14.93;13.30;;;12.70;99.90;;;12.25;93.14;100068.84;5094477;28;20229;-76
2023/08/31 04:12:18;;;;;;;15.53;12.87;;;12.70;99.90;;;12.30;93.04;100058.38;5095940;28;20276;-76
2023/08/31 04:14:49;;;;;;;18.03;14.40;;;12.80;99.90;;;12.33;92.33;100068.72;5095792;28;20251;-76
2023/08/31 04:17:21;;;;;;;15.33;13.20;;;12.90;99.90;;;12.31;93.10;100070.78;5095979;28;20614;-76
2023/08/31 04:19:56;;;;;;;15.10;13.00;;;12.80;99.90;;;12.35;92.19;100071.25;5096589;28;20189;-76
2023/08/31 04:22:28;;;;;;;17.07;13.20;;;12.90;99.90;;;12.29;92.57;100067.47;5095383;28;20185;-76
2023/08/31 04:25:00;;;;;;;17.90;14.00;;;12.80;99.90;;;12.18;93.12;100076.00;5095232;28;20413;-76
2023/08/31 04:27:33;;;;;;;19.83;13.77;;;12.70;99.90;;;12.10;93.99;100074.22;5095701;28;20196;-76
2023/08/31 04:30:07;;;;;;;18.17;14.13;;;12.70;99.90;;;12.14;93.87;100075.53;5095626;28;20224;-76
2023/08/31 04:32:39;;;;;;;17.37;13.17;;;12.60;99.90;;;12.16;93.35;100078.84;5095269;28;20534;-76
2023/08/31 04:35:12;;;;;;;18.53;13.67;;;12.60;99.90;;;12.15;93.13;100084.41;5095633;28;20246;-76
2023/08/31 04:37:45;;;;;;;14.93;12.70;;;12.70;99.90;;;12.14;94.17;100082.75;5095302;28;20234;-76
2023/08/31 04:40:16;;;;;;;17.87;12.70;;;12.60;99.90;;;12.13;93.98;100078.38;5095312;28;20246;-75
2023/08/31 04:42:50;;;;;;;17.03;12.63;;;12.70;99.90;;;12.19;93.73;100088.41;5094963;28;20647;-76
2023/08/31 04:45:22;;;;;;;16.87;13.10;;;12.80;99.90;;;12.20;93.37;100090.03;5095272;28;20224;-76
2023/08/31 04:47:54;;;;;;;17.33;13.00;;;12.80;99.90;;;12.22;93.06;100088.03;5094939;28;20556;-76
2023/08/31 04:50:26;;;;;;;16.80;13.67;;;12.70;99.90;;;12.25;93.43;100101.06;5095296;28;20192;-77
2023/08/31 04:52:58;;;;;;;16.97;13.13;;;12.80;99.90;;;12.18;93.89;100100.16;5096054;28;20213;-76
2023/08/31 04:55:29;;;;;;;20.03;13.37;;;12.80;99.90;;;12.16;94.06;100096.78;5095169;28;20234;-76
2023/08/31 04:58:03;;;;;;;17.43;12.60;;;12.80;99.90;;;12.13;93.12;100100.69;5094741;28;20240;-76
2023/08/31 05:00:34;;;;;;;15.30;12.37;;;12.80;99.90;;;12.22;93.41;100100.59;5095133;28;20221;-76
2023/08/31 05:03:06;;;;;;;17.57;12.03;;;12.80;99.90;;;12.18;93.24;100102.81;5094899;28;20212;-75
2023/08/31 05:05:38;;;;;;;15.03;12.20;;;12.70;99.90;;;12.20;93.71;100101.63;5094967;28;20197;-75
2023/08/31 05:08:11;;;;;;;16.90;12.43;;;12.80;99.90;;;12.24;93.41;100102.06;5094895;28;20193;-76
2023/08/31 05:10:43;;;;;;;14.97;11.97;;;12.90;99.90;;;12.28;93.19;100103.38;5094833;28;20189;-75
2023/08/31 05:13:16;;;;;;;15.87;12.77;;;12.90;99.90;;;12.32;92.75;100112.72;5094588;28;20245;-75
2023/08/31 05:15:48;;;;;;;15.63;12.13;;;12.90;99.90;;;12.35;92.49;100115.03;5094345;28;20193;-75
2023/08/31 05:18:20;;;;;;;16.83;13.37;;;12.90;99.90;;;12.30;93.10;100120.09;5094652;28;20274;-76
2023/08/31 05:20:51;;;;;;;17.40;13.97;;;12.90;99.90;;;12.34;93.14;100115.19;5094741;28;20556;-76
2023/08/31 05:23:23;;;;;;;13.93;12.30;;;12.90;99.90;;;12.33;92.41;100127.78;5094230;28;20271;-76
2023/08/31 05:25:56;;;;;;;14.57;12.87;;;12.90;99.90;;;12.34;93.05;100118.72;5094816;28;20740;-75
2023/08/31 05:28:30;;;;;;;17.97;14.27;;;13.00;99.90;;;12.31;92.62;100124.47;5095105;28;20193;-75
2023/08/31 05:31:05;;;;;;;16.20;14.07;;;12.90;99.90;;;12.31;92.85;100124.47;5097164;28;20219;-74
2023/08/31 05:33:37;;;;;;;15.97;14.27;;;12.90;99.90;;;12.33;92.77;100137.72;5095948;28;20228;-75
2023/08/31 05:36:09;;;;;;;15.90;14.30;;;13.10;99.90;;;12.32;93.64;100144.94;5094301;28;20193;-76
2023/08/31 05:38:41;;;;;;;17.23;14.60;;;12.90;99.90;;;12.32;92.73;100142.25;5094242;28;20193;-76
2023/08/31 05:41:13;;;;;;;17.50;15.30;;;12.90;99.90;;;12.33;92.89;100143.09;5094202;28;20197;-76
2023/08/31 05:43:46;;;;;;;18.43;15.67;;;12.90;99.90;;;12.30;93.37;100146.09;5094107;28;20248;-76
2023/08/31 05:46:19;;;;;;;22.90;15.97;;;12.90;99.90;;;12.29;93.15;100148.00;5094170;28;20276;-76
2023/08/31 05:48:52;;;;;;;17.70;15.77;;;12.90;99.90;;;12.30;92.50;100144.25;5094117;28;20243;-76
2023/08/31 05:51:24;;;;;;;21.17;16.97;;;12.90;99.90;;;12.27;93.29;100138.44;5094030;28;20193;-76
2023/08/31 05:53:56;;;;;;;22.27;17.60;;;12.90;99.90;;;12.24;92.38;100141.50;5093662;28;20290;-76
2023/08/31 05:56:28;;;;;;;21.30;18.10;;;12.90;99.90;;;12.29;92.18;100142.63;5093657;28;20738;-76
2023/08/31 05:59:01;;;;;;;20.43;18.13;;;12.90;99.90;;;12.26;92.41;100148.34;5093645;28;20709;-76
2023/08/31 06:01:33;;;;;;;25.57;19.43;;;12.90;99.90;;;12.32;91.96;100144.94;5093898;28;20276;-76
2023/08/31 06:04:05;;;;;;;20.13;17.97;;;12.90;99.90;;;12.29;91.04;100145.31;5093442;28;20699;-76
2023/08/31 06:06:37;;;;;;;24.87;19.93;;;13.00;99.90;;;12.30;91.28;100152.31;5093838;28;20193;-76
2023/08/31 06:09:10;;;;;;;21.73;19.53;;;12.90;99.90;;;12.33;90.85;100151.94;5093784;28;20275;-76
2023/08/31 06:11:42;;;;;;;25.23;20.67;;;12.90;99.90;;;12.37;91.43;100155.94;5093763;28;20220;-76
2023/08/31 06:14:15;;;;;;;23.63;20.60;;;13.00;99.90;;;12.40;90.51;100150.19;5093553;28;20315;-76
2023/08/31 06:16:47;;;;;;;24.73;20.37;;;13.00;99.90;;;12.40;91.15;100143.97;5093756;28;20263;-76
2023/08/31 06:19:19;;;;;;;24.33;21.33;;;13.10;99.90;;;12.40;90.66;100154.72;5093684;28;20306;-75
2023/08/31 06:21:51;;;;;;;23.20;20.80;;;13.00;99.90;;;12.46;90.74;100165.56;5093624;28;20219;-75
2023/08/31 06:24:23;;;;;;;24.63;21.13;;;13.10;99.90;;;12.48;90.15;100157.31;5093508;28;20309;-75
2023/08/31 06:26:56;;;;;;;25.90;21.97;;;13.10;99.90;;;12.52;91.21;100158.59;5093261;28;20189;-75
2023/08/31 06:29:30;;;;;;;25.77;21.90;;;13.10;99.90;;;12.53;89.90;100158.44;5093581;28;20231;-75
2023/08/31 06:32:02;;;;;;;26.30;22.83;;;13.10;99.90;;;12.55;90.48;100161.75;5094740;28;20224;-75
2023/08/31 06:34:34;;;;;;;24.00;21.50;;;13.10;99.90;;;12.59;90.35;100160.38;5097659;28;20225;-76
2023/08/31 06:37:06;;;;;;;23.37;21.03;;;13.40;99.90;;;12.63;90.30;100163.50;5097754;28;20191;-76
2023/08/31 06:39:38;;;;;;;26.43;23.00;;;13.30;99.90;;;12.64;89.67;100160.63;5097725;28;20239;-75
2023/08/31 06:42:10;;;;;;;26.17;23.07;;;13.30;99.90;;;12.70;90.60;100154.50;5097654;28;20607;-75
2023/08/31 06:44:44;;;;;;;23.97;21.43;;;13.30;99.90;;;12.70;88.66;100156.38;5097565;28;20774;-75
2023/08/31 06:47:17;;;;;;;24.30;21.03;;;13.30;99.90;;;12.78;89.52;100152.72;5098143;28;20196;-76
2023/08/31 06:49:49;;;;;;;39.87;24.60;;;13.40;99.90;;;12.81;88.70;100155.84;5097576;28;20188;-75
2023/08/31 06:52:22;;;;;;;50.90;24.37;;;13.40;99.90;;;12.87;88.82;100157.81;5097521;28;20195;-75
2023/08/31 06:55:03;;;;;;;24.73;21.50;;;13.60;99.90;;;12.95;89.24;100160.38;5097165;28;20259;-75
2023/08/31 06:57:36;;;;;;;28.97;22.80;;;13.50;99.90;;;13.04;90.26;100158.41;5097190;28;20189;-75
2023/08/31 07:00:13;;;;;;;24.03;20.83;;;13.60;99.90;;;13.04;88.30;100153.88;5097445;28;20193;-75
2023/08/31 07:02:45;;;;;;;23.87;21.47;;;13.70;99.90;;;13.07;88.24;100156.19;5097476;28;20623;-75
2023/08/31 07:05:17;;;;;;;22.93;20.00;;;13.70;99.90;;;13.04;87.17;100163.78;5097295;28;20227;-75
2023/08/31 07:07:49;;;;;;;77.10;26.23;;;13.70;99.90;;;13.03;86.67;100159.44;5097214;28;20279;-75
2023/08/31 07:10:22;;;;;;;88.23;28.20;;;13.70;99.90;;;13.07;87.13;100168.78;5096845;28;20601;-64
2023/08/31 07:12:54;;;;;;;43.47;20.77;;;13.60;99.90;;;13.06;87.45;100161.72;5098320;28;20216;-73
2023/08/31 07:15:27;;;;;;;23.17;19.67;;;13.70;99.90;;;13.07;86.84;100166.94;5080049;28;20713;-73
2023/08/31 07:18:03;;;;;;;40.10;20.77;;;13.70;99.90;;;13.09;86.89;100172.13;5098431;28;20749;-76
2023/08/31 07:20:35;;;;;;;26.17;17.77;;;13.70;99.90;;;13.12;86.94;100166.38;5098046;28;20185;-76
2023/08/31 07:23:08;;;;;;;41.50;18.00;;;13.70;99.90;;;13.14;86.09;100172.41;5098832;28;20208;-76
2023/08/31 07:25:42;;;;;;;17.60;14.73;;;13.70;99.90;;;13.11;84.47;100167.41;5097612;28;20189;-76
2023/08/31 07:28:13;;;;;;;32.23;17.53;;;13.70;99.90;;;13.13;85.36;100168.03;5097911;28;20567;-76
2023/08/31 07:30:47;;;;;;;19.63;14.40;;;13.70;99.90;;;13.13;85.08;100170.72;5098368;28;20281;-75
2023/08/31 07:33:19;;;;;;;17.30;14.03;;;14.30;99.90;;;13.14;85.26;100172.41;5098008;28;20193;-75
2023/08/31 07:36:03;;;;;;;17.37;14.73;;;13.70;99.90;;;13.14;84.47;100180.47;5098890;28;20209;-75
2023/08/31 07:38:35;;;;;;;29.37;16.03;;;13.70;99.90;;;13.14;85.12;100183.16;5098220;28;20192;-75
2023/08/31 07:41:08;;;;;;;16.63;14.90;;;13.70;99.90;;;13.16;85.63;100183.78;5098391;28;20534;-76
2023/08/31 07:43:40;;;;;;;15.50;13.93;;;13.70;99.90;;;13.16;84.75;100183.78;5097775;28;20241;-76
2023/08/31 07:46:30;;;;;;;15.87;13.97;;;13.80;99.90;;;13.19;85.33;100188.78;5097846;28;20185;-76
2023/08/31 07:49:03;;;;;;;17.17;13.93;;;13.80;99.90;;;13.27;85.50;100195.91;5097826;28;20635;-76
2023/08/31 07:51:35;;;;;;;15.83;14.10;;;13.80;99.90;;;13.35;85.89;100193.09;5081467;28;20189;-76
2023/08/31 07:54:08;;;;;;;15.17;13.67;;;13.90;99.90;;;13.39;85.02;100195.19;5097910;28;20229;-76
2023/08/31 07:56:41;;;;;;;16.70;12.80;;;14.00;99.90;;;13.44;84.32;100195.47;5097265;28;20585;-75
2023/08/31 07:59:13;;;;;;;14.27;12.77;;;14.00;99.90;;;13.53;84.52;100196.97;5098534;28;20247;-75
2023/08/31 08:01:48;;;;;;;14.60;13.10;;;14.30;99.90;;;13.62;84.05;100195.84;5099698;28;20561;-75
2023/08/31 08:04:20;;;;;;;12.77;11.37;;;14.20;99.90;;;13.67;83.38;100197.94;5097531;28;20224;-75
2023/08/31 08:06:54;;;;;;;15.37;10.70;;;14.30;99.90;;;13.67;82.27;100193.41;5097011;28;20189;-75
2023/08/31 08:09:26;;;;;;;10.57;9.47;;;14.80;99.90;;;13.70;81.26;100201.06;5097362;28;20181;-76
2023/08/31 08:11:58;;;;;;;10.53;9.00;;;14.30;99.90;;;13.79;81.53;100198.25;5097736;28;20219;-76
2023/08/31 08:14:30;;;;;;;10.27;9.33;;;14.40;99.90;;;13.91;80.16;100199.38;5096779;28;20608;-75
2023/08/31 08:17:03;;;;;;;10.20;8.53;;;14.50;99.90;;;14.00;80.48;100200.94;5098250;28;20219;-75
2023/08/31 08:19:35;;;;;;;12.70;10.00;;;14.60;99.90;;;14.06;80.42;100200.13;5096616;28;20217;-75
2023/08/31 08:22:07;;;;;;;9.00;8.10;;;14.60;99.90;;;14.07;79.74;100201.81;5097415;28;20246;-75
2023/08/31 08:24:39;;;;;;;9.37;8.17;;;14.70;99.90;;;14.07;81.46;100209.88;5097294;28;20224;-75
2023/08/31 08:27:14;;;;;;;11.17;8.13;;;14.70;99.90;;;14.02;79.82;100213.16;5097222;28;20220;-76
2023/08/31 08:29:46;;;;;;;10.53;8.20;;;14.60;99.90;;;14.01;79.34;100221.41;5097515;28;20219;-75
2023/08/31 08:32:20;;;;;;;11.07;8.13;;;14.70;99.90;;;14.03;79.89;100214.00;5097210;28;20256;-75
2023/08/31 08:34:53;;;;;;;9.37;8.10;;;14.70;99.90;;;14.00;78.66;100215.22;5096196;28;20243;-75
2023/08/31 08:37:25;;;;;;;10.83;7.77;;;14.60;99.90;;;14.05;78.67;100204.69;5095619;28;20200;-76
2023/08/31 08:39:57;;;;;;;9.13;7.43;;;14.60;99.90;;;14.15;78.51;100204.34;5095705;28;20284;-75
2023/08/31 08:42:32;;;;;;;10.33;7.83;;;14.80;99.90;;;14.25;78.31;100204.81;5096118;28;20606;-75
2023/08/31 08:45:06;;;;;;;8.43;7.50;;;14.80;99.90;;;14.30;78.27;100204.22;5096096;28;20225;-75
2023/08/31 08:47:43;;;;;;;10.63;7.13;;;15.10;99.90;;;14.41;78.49;100201.03;5095705;28;20200;-75
2023/08/31 08:50:17;;;;;;;12.60;9.20;;;15.00;99.90;;;14.49;79.55;100206.25;5096243;28;20272;-76
2023/08/31 08:52:49;;;;;;;13.10;11.17;;;15.10;99.90;;;14.48;78.55;100209.97;5096616;28;20284;-75
2023/08/31 08:55:22;;;;;;;10.17;7.80;;;15.10;99.90;;;14.44;77.39;100212.25;5094825;28;20755;-76
2023/08/31 08:57:54;;;;;;;8.57;6.77;;;15.10;99.90;;;14.48;76.97;100205.44;5095609;28;20199;-76
2023/08/31 09:00:26;;;;;;;8.30;6.07;;;15.10;99.90;;;14.55;77.63;100203.63;5095533;28;20231;-76
2023/08/31 09:03:02;;;;;;;7.70;6.10;;;15.10;99.90;;;14.60;76.48;100206.53;5095740;28;20189;-75
2023/08/31 09:05:36;;;;;;;7.20;6.50;;;15.20;99.90;;;14.65;77.45;100208.63;5095884;28;20181;-76
2023/08/31 09:08:12;;;;;;;7.57;6.20;;;15.50;99.90;;;14.66;76.32;100204.88;5095490;28;20642;-74
2023/08/31 09:10:45;;;;;;;7.70;6.57;;;15.30;99.90;;;14.61;75.64;100202.81;5095022;28;20216;-76
2023/08/31 09:13:18;;;;;;;6.80;6.10;;;15.20;99.90;;;14.78;77.04;100202.47;5095347;28;20232;-75
2023/08/31 09:15:52;;;;;;;6.80;6.10;;;15.40;99.90;;;14.85;77.56;100203.31;5095221;28;20212;-75
2023/08/31 09:18:31;;;;;;;6.50;5.87;;;15.50;99.90;;;14.99;76.92;100192.41;5094226;28;20212;-75
2023/08/31 09:21:05;;;;;;;7.87;6.27;;;15.60;99.90;;;14.99;74.97;100202.34;5094914;28;20638;-75
2023/08/31 09:23:37;;;;;;;6.17;5.47;;;15.60;99.90;;;14.94;75.41;100207.50;5095360;28;20228;-75
2023/08/31 09:26:09;;;;;;;6.50;5.90;;;15.50;99.90;;;14.90;76.68;100206.22;5095738;28;20654;-76
2023/08/31 09:28:46;;;;;;;8.50;5.97;;;15.80;99.90;;;14.89;76.24;100209.97;5095726;28;20200;-75
2023/08/31 09:31:18;;;;;;;6.00;5.40;;;15.40;99.90;;;14.90;76.23;100206.22;5095078;28;20296;-75
2023/08/31 09:33:56;;;;;;;7.27;6.17;;;15.60;99.90;;;14.93;75.45;100205.84;5094099;28;20828;-76
2023/08/31 09:36:29;;;;;;;14.87;6.00;;;15.50;99.90;;;14.99;72.87;100197.78;5094673;28;20236;-75
2023/08/31 09:39:02;;;;;;;6.50;5.90;;;15.50;99.90;;;15.09;71.53;100195.53;5094347;28;20639;-75
2023/08/31 09:41:34;;;;;;;8.37;6.13;;;15.70;99.90;;;15.05;71.98;100201.53;5095325;28;20268;-75
2023/08/31 09:44:20;;;;;;;7.87;6.17;;;15.60;99.90;;;15.11;73.29;100188.06;5094901;28;20240;-73
2023/08/31 09:46:53;;;;;;;7.37;4.77;;;15.70;99.90;;;15.10;73.52;100191.00;5094964;28;20185;-74
2023/08/31 09:49:28;;;;;;;7.10;4.90;;;15.80;99.90;;;15.11;73.09;100190.78;5095349;28;20201;-73
2023/08/31 09:52:03;;;;;;;8.13;4.63;;;15.70;99.90;;;15.22;72.63;100189.34;5095139;28;20276;-73
2023/08/31 09:54:37;;;;;;;6.07;4.50;;;15.80;99.90;;;15.39;72.44;100179.84;5094796;28;20323;-74
2023/08/31 09:57:10;;;;;;;5.60;4.60;;;15.90;99.90;;;15.46;71.64;100179.84;5095090;28;20300;-74
2023/08/31 09:59:45;;;;;;;7.50;5.40;;;16.00;99.90;;;15.55;71.75;100184.88;5095015;28;20281;-74
2023/08/31 10:02:19;;;;;;;6.90;5.03;;;16.10;99.90;;;15.65;72.19;100182.59;5095199;28;20274;-74
2023/08/31 10:04:56;;;;;;;7.00;5.30;;;16.20;99.90;;;15.61;71.32;100191.34;5094806;28;20228;-74
2023/08/31 10:07:29;;;;;;;6.67;5.00;;;16.20;99.90;;;15.62;72.13;100183.00;5094336;28;20189;-74
2023/08/31 10:10:04;;;;;;;7.90;5.30;;;16.20;99.90;;;15.60;72.19;100182.41;5095043;28;20238;-74
2023/08/31 10:12:38;;;;;;;7.23;5.90;;;16.20;99.90;;;15.58;70.92;100195.25;5095030;28;20189;-74
2023/08/31 10:15:13;;;;;;;7.30;6.00;;;16.30;99.90;;;15.66;71.69;100180.72;5094911;28;20284;-74
2023/08/31 10:17:45;;;;;;;7.10;6.40;;;16.20;99.90;;;15.76;72.36;100183.84;5095208;28;20258;-75
2023/08/31 10:20:20;;;;;;;6.60;5.90;;;16.70;99.90;;;15.75;70.50;100192.16;5095314;28;20189;-75
2023/08/31 10:22:52;;;;;;;5.70;5.00;;;16.70;99.90;;;15.98;68.75;100195.28;5095077;28;20643;-75
2023/08/31 10:25:26;;;;;;;6.20;5.10;;;16.50;99.90;;;16.12;67.92;100195.06;5094938;28;20225;-73
2023/08/31 10:27:58;;;;;;;6.90;4.77;;;16.70;99.90;;;16.17;67.74;100200.66;5095211;28;20219;-73
2023/08/31 10:30:31;;;;;;;5.73;5.23;;;16.70;99.90;;;16.15;70.19;100201.91;5095030;28;20284;-73